Station Historical Data
Daily Summary for December 2, 2017 Units:  English    Metric   Both
« Previous Day
Next Day »
Daily Weekly Monthly Yearly Custom
  High: Low: Average:
Temperature: 44.8 °F 30.1 °F 36.9 °F
Dew Point: 37.1 °F 26.7 °F 31.1 °F
Humidity: 88% 70% 80%
Wind Speed: 4.0mph 0.0mph 0.2mph
Wind Gust: 6.0mph - -
Wind- - SSW
Pressure: 30.27 in 30.14 in -
Precipitation: 0.00 in    
Historical Graphs
 
 
Tabular Data for December 2, 2017
Time Temperature Dew Point Pressure Wind Wind Speed Wind Gust Humidity Rainfall Rate (Hourly)
00:04 32.1 °F 27.5 °F 30.25 in Calm     83% 0.00 in
00:09 32.1 °F 27.5 °F 30.25 in Calm     83% 0.00 in
00:14 32.1 °F 27.5 °F 30.25 in Calm     83% 0.00 in
00:19 32.2 °F 27.6 °F 30.25 in Calm     83% 0.00 in
00:24 32.1 °F 27.5 °F 30.25 in Calm     83% 0.00 in
00:29 32.0 °F 27.4 °F 30.25 in Calm     83% 0.00 in
00:34 31.9 °F 27.3 °F 30.25 in Calm     83% 0.00 in
00:39 31.7 °F 27.1 °F 30.26 in Calm     83% 0.00 in
00:49 31.5 °F 27.2 °F 30.25 in Calm     84% 0.00 in
00:54 31.5 °F 27.2 °F 30.25 in Calm     84% 0.00 in
00:59 31.6 °F 27.3 °F 30.25 in Calm     84% 0.00 in
01:09 31.7 °F 27.4 °F 30.26 in Calm     84% 0.00 in
01:14 31.6 °F 27.3 °F 30.26 in Calm     84% 0.00 in
01:24 31.4 °F 27.1 °F 30.27 in Calm     84% 0.00 in
01:29 31.7 °F 27.7 °F 30.27 in Calm     85% 0.00 in
01:34 32.0 °F 28.0 °F 30.27 in Calm     85% 0.00 in
01:39 32.2 °F 28.2 °F 30.27 in Calm     85% 0.00 in
01:44 32.6 °F 28.6 °F 30.27 in Calm     85% 0.00 in
01:49 32.9 °F 28.9 °F 30.27 in Calm     85% 0.00 in
02:14 33.4 °F 29.1 °F 30.25 in Calm     84% 0.00 in
02:19 33.4 °F 29.1 °F 30.25 in SSE 1.0 mph 4.0 mph 84% 0.00 in
02:24 33.3 °F 29.0 °F 30.25 in Calm   4.0 mph 84% 0.00 in
02:29 33.4 °F 29.1 °F 30.25 in Calm     84% 0.00 in
02:39 33.5 °F 29.2 °F 30.25 in Calm     84% 0.00 in
02:44 33.5 °F 29.2 °F 30.25 in Calm     84% 0.00 in
02:49 33.5 °F 29.2 °F 30.25 in Calm     84% 0.00 in
02:54 33.5 °F 29.2 °F 30.25 in Calm     84% 0.00 in
03:14 33.2 °F 28.9 °F 30.25 in Calm     84% 0.00 in
03:24 32.9 °F 28.9 °F 30.26 in Calm     85% 0.00 in
03:29 33.2 °F 29.2 °F 30.26 in Calm     85% 0.00 in
03:34 33.2 °F 29.2 °F 30.25 in Calm     85% 0.00 in
03:39 33.1 °F 29.1 °F 30.25 in Calm     85% 0.00 in
03:54 33.0 °F 29.0 °F 30.25 in Calm     85% 0.00 in
03:59 32.8 °F 28.8 °F 30.24 in Calm     85% 0.00 in
04:04 32.8 °F 28.8 °F 30.24 in Calm     85% 0.00 in
04:09 32.7 °F 28.7 °F 30.24 in Calm     85% 0.00 in
04:14 32.6 °F 28.6 °F 30.24 in Calm     85% 0.00 in
04:19 32.5 °F 28.5 °F 30.24 in Calm     85% 0.00 in
04:24 32.2 °F 28.2 °F 30.24 in Calm     85% 0.00 in
04:29 32.0 °F 28.0 °F 30.24 in Calm     85% 0.00 in
04:34 32.0 °F 28.3 °F 30.24 in Calm     86% 0.00 in
04:39 31.9 °F 28.2 °F 30.23 in Calm     86% 0.00 in
04:44 31.8 °F 28.1 °F 30.23 in Calm     86% 0.00 in
04:54 31.7 °F 28.0 °F 30.23 in Calm     86% 0.00 in
04:59 31.6 °F 27.9 °F 30.23 in Calm     86% 0.00 in
05:04 31.7 °F 28.0 °F 30.23 in Calm     86% 0.00 in
05:09 31.4 °F 27.7 °F 30.23 in Calm     86% 0.00 in
05:14 31.3 °F 27.6 °F 30.23 in Calm     86% 0.00 in
05:19 31.0 °F 27.3 °F 30.23 in Calm     86% 0.00 in
05:24 30.9 °F 27.5 °F 30.23 in Calm     87% 0.00 in
05:29 30.8 °F 27.4 °F 30.23 in Calm     87% 0.00 in
05:34 30.7 °F 27.3 °F 30.23 in Calm     87% 0.00 in
05:39 30.7 °F 27.3 °F 30.23 in Calm     87% 0.00 in
05:44 30.7 °F 27.3 °F 30.23 in Calm     87% 0.00 in
05:49 30.7 °F 27.3 °F 30.23 in Calm     87% 0.00 in
05:54 30.9 °F 27.5 °F 30.23 in Calm     87% 0.00 in
06:04 31.4 °F 28.3 °F 30.23 in Calm     88% 0.00 in
06:09 31.3 °F 27.9 °F 30.23 in Calm     87% 0.00 in
06:14 31.1 °F 27.7 °F 30.24 in Calm     87% 0.00 in
06:19 31.1 °F 28.0 °F 30.24 in Calm     88% 0.00 in
06:24 31.0 °F 27.6 °F 30.24 in Calm     87% 0.00 in
06:29 30.9 °F 27.8 °F 30.24 in Calm     88% 0.00 in
06:34 30.7 °F 27.3 °F 30.24 in Calm     87% 0.00 in
06:44 30.3 °F 26.9 °F 30.24 in Calm     87% 0.00 in
06:49 30.1 °F 26.7 °F 30.24 in Calm     87% 0.00 in
07:09 30.4 °F 27.3 °F 30.24 in Calm     88% 0.00 in
07:14 30.6 °F 27.5 °F 30.24 in Calm     88% 0.00 in
07:19 30.6 °F 27.5 °F 30.24 in Calm     88% 0.00 in
07:24 30.5 °F 27.4 °F 30.24 in Calm     88% 0.00 in
07:34 30.5 °F 27.4 °F 30.24 in Calm     88% 0.00 in
07:39 30.6 °F 27.5 °F 30.24 in Calm     88% 0.00 in
07:44 30.6 °F 27.5 °F 30.24 in Calm     88% 0.00 in
07:54 31.0 °F 27.9 °F 30.24 in Calm     88% 0.00 in
07:59 31.1 °F 28.0 °F 30.24 in Calm     88% 0.00 in
08:04 31.3 °F 28.2 °F 30.24 in Calm     88% 0.00 in
08:09 31.5 °F 28.4 °F 30.24 in Calm     88% 0.00 in
08:14 31.7 °F 28.6 °F 30.24 in Calm     88% 0.00 in
08:19 32.0 °F 28.8 °F 30.24 in Calm     88% 0.00 in
08:24 32.4 °F 29.2 °F 30.24 in Calm     88% 0.00 in
08:34 32.8 °F 29.4 °F 30.24 in Calm     87% 0.00 in
08:39 33.1 °F 29.7 °F 30.24 in Calm     87% 0.00 in
08:44 33.4 °F 29.7 °F 30.24 in Calm     86% 0.00 in
08:49 33.6 °F 29.9 °F 30.24 in Calm     86% 0.00 in
08:54 34.0 °F 30.3 °F 30.24 in Calm     86% 0.00 in
08:59 34.3 °F 30.3 °F 30.24 in Calm     85% 0.00 in
09:04 34.5 °F 30.5 °F 30.24 in Calm     85% 0.00 in
09:14 35.2 °F 30.9 °F 30.24 in Calm     84% 0.00 in
09:19 35.5 °F 31.1 °F 30.24 in Calm     84% 0.00 in
09:24 36.0 °F 31.3 °F 30.24 in Calm     83% 0.00 in
09:29 36.1 °F 31.1 °F 30.24 in Calm     82% 0.00 in
09:34 36.4 °F 31.4 °F 30.24 in Calm     82% 0.00 in
09:44 36.9 °F 31.6 °F 30.24 in Calm     81% 0.00 in
09:49 37.1 °F 31.5 °F 30.24 in Calm     80% 0.00 in
09:59 37.7 °F 31.8 °F 30.24 in Calm     79% 0.00 in
10:04 38.0 °F 32.1 °F 30.24 in Calm     79% 0.00 in
10:14 38.5 °F 32.2 °F 30.24 in Calm     78% 0.00 in
10:19 38.8 °F 32.5 °F 30.24 in Calm     78% 0.00 in
10:24 38.9 °F 32.3 °F 30.24 in Calm     77% 0.00 in
10:29 39.1 °F 32.5 °F 30.24 in Calm     77% 0.00 in
10:34 39.2 °F 32.6 °F 30.24 in Calm     77% 0.00 in
10:39 39.3 °F 32.7 °F 30.24 in Calm     77% 0.00 in
10:44 39.5 °F 32.6 °F 30.24 in Calm     76% 0.00 in
10:54 39.7 °F 32.8 °F 30.23 in Calm     76% 0.00 in
10:59 39.9 °F 32.6 °F 30.24 in SW 1.0 mph 5.0 mph 75% 0.00 in
11:04 40.0 °F 33.0 °F 30.23 in SW 1.0 mph 5.0 mph 76% 0.00 in
11:09 40.2 °F 32.9 °F 30.23 in Calm   3.0 mph 75% 0.00 in
11:14 40.3 °F 33.0 °F 30.23 in Calm   3.0 mph 75% 0.00 in
11:19 40.4 °F 32.8 °F 30.23 in SW 3.0 mph 3.0 mph 74% 0.00 in
11:24 40.5 °F 33.2 °F 30.23 in SW 1.0 mph 3.0 mph 75% 0.00 in
11:29 40.7 °F 33.4 °F 30.23 in SW 1.0 mph 3.0 mph 75% 0.00 in
11:34 40.6 °F 33.0 °F 30.23 in SW 1.0 mph 3.0 mph 74% 0.00 in
11:44 41.2 °F 33.9 °F 30.23 in SW 2.0 mph 4.0 mph 75% 0.00 in
11:49 41.4 °F 34.1 °F 30.22 in Calm   2.0 mph 75% 0.00 in
11:54 41.5 °F 34.2 °F 30.22 in Calm   3.0 mph 75% 0.00 in
11:59 41.6 °F 33.9 °F 30.22 in SW 1.0 mph 4.0 mph 74% 0.00 in
12:09 41.6 °F 34.3 °F 30.21 in SW 1.0 mph 3.0 mph 75% 0.00 in
12:14 41.7 °F 34.4 °F 30.21 in SW 1.0 mph 3.0 mph 75% 0.00 in
12:19 41.8 °F 34.5 °F 30.21 in Calm   2.0 mph 75% 0.00 in
12:29 42.0 °F 34.6 °F 30.20 in SW 1.0 mph 3.0 mph 75% 0.00 in
12:39 42.5 °F 35.1 °F 30.20 in SW 3.0 mph 4.0 mph 75% 0.00 in
12:44 42.4 °F 35.0 °F 30.20 in Calm   3.0 mph 75% 0.00 in
12:59 43.0 °F 35.6 °F 30.20 in Calm   4.0 mph 75% 0.00 in
13:09 43.3 °F 35.9 °F 30.19 in SW 1.0 mph 5.0 mph 75% 0.00 in
13:14 43.3 °F 35.9 °F 30.19 in WSW 1.0 mph 5.0 mph 75% 0.00 in
13:19 43.1 °F 35.7 °F 30.19 in SW 2.0 mph 4.0 mph 75% 0.00 in
13:24 42.8 °F 35.8 °F 30.18 in Calm   5.0 mph 76% 0.00 in
13:29 43.1 °F 36.0 °F 30.18 in Calm     76% 0.00 in
13:34 43.1 °F 36.0 °F 30.18 in Calm     76% 0.00 in
13:39 43.1 °F 36.0 °F 30.18 in Calm   3.0 mph 76% 0.00 in
13:49 43.0 °F 36.0 °F 30.18 in Calm   3.0 mph 76% 0.00 in
14:04 44.5 °F 37.1 °F 30.18 in SW 1.0 mph 5.0 mph 75% 0.00 in
14:14 43.7 °F 36.3 °F 30.17 in SSW 1.0 mph 4.0 mph 75% 0.00 in
14:19 43.6 °F 36.2 °F 30.16 in SSW 1.0 mph 6.0 mph 75% 0.00 in
14:34 44.7 °F 36.6 °F 30.17 in WSW 4.0 mph 5.0 mph 73% 0.00 in
14:39 44.7 °F 36.6 °F 30.16 in SSW 2.0 mph 5.0 mph 73% 0.00 in
14:44 44.8 °F 36.7 °F 30.16 in SSW 1.0 mph 4.0 mph 73% 0.00 in
14:49 44.3 °F 36.2 °F 30.16 in South 2.0 mph 5.0 mph 73% 0.00 in
14:59 43.8 °F 35.7 °F 30.17 in South 1.0 mph 4.0 mph 73% 0.00 in
15:09 43.5 °F 35.8 °F 30.16 in South 1.0 mph 4.0 mph 74% 0.00 in
15:14 43.4 °F 35.7 °F 30.16 in SSW 1.0 mph 3.0 mph 74% 0.00 in
15:29 43.2 °F 35.1 °F 30.16 in South 2.0 mph 4.0 mph 73% 0.00 in
15:34 43.4 °F 35.7 °F 30.16 in Calm   3.0 mph 74% 0.00 in
15:49 43.5 °F 35.1 °F 30.16 in South 2.0 mph 5.0 mph 72% 0.00 in
15:54 43.3 °F 34.9 °F 30.16 in SE 2.0 mph 2.0 mph 72% 0.00 in
16:09 43.0 °F 34.2 °F 30.15 in Calm   3.0 mph 71% 0.00 in
16:19 42.9 °F 33.8 °F 30.15 in SSE 1.0 mph 3.0 mph 70% 0.00 in
16:24 42.5 °F 33.4 °F 30.15 in SSE 2.0 mph 3.0 mph 70% 0.00 in
16:29 42.1 °F 33.0 °F 30.15 in SSE 1.0 mph 2.0 mph 70% 0.00 in
16:34 41.8 °F 32.7 °F 30.14 in Calm   2.0 mph 70% 0.00 in
16:44 41.1 °F 32.4 °F 30.15 in SSE 1.0 mph 3.0 mph 71% 0.00 in
16:49 40.8 °F 32.5 °F 30.15 in Calm   2.0 mph 72% 0.00 in
16:59 40.4 °F 32.1 °F 30.15 in Calm     72% 0.00 in
17:04 39.9 °F 31.9 °F 30.16 in Calm     73% 0.00 in
17:09 39.9 °F 31.9 °F 30.17 in Calm     73% 0.00 in
17:14 39.8 °F 31.8 °F 30.17 in Calm     73% 0.00 in
17:24 39.7 °F 32.1 °F 30.17 in Calm     74% 0.00 in
17:29 39.7 °F 32.1 °F 30.17 in Calm     74% 0.00 in
17:34 39.7 °F 32.4 °F 30.17 in Calm     75% 0.00 in
17:39 39.8 °F 32.2 °F 30.17 in Calm     74% 0.00 in
17:44 39.8 °F 32.5 °F 30.17 in Calm     75% 0.00 in
17:49 39.9 °F 32.6 °F 30.17 in Calm     75% 0.00 in
17:59 40.1 °F 32.8 °F 30.17 in Calm     75% 0.00 in
18:04 40.1 °F 32.8 °F 30.17 in Calm     75% 0.00 in
18:09 40.2 °F 32.9 °F 30.17 in Calm     75% 0.00 in
18:14 40.2 °F 32.9 °F 30.17 in Calm     75% 0.00 in
18:39 40.0 °F 33.0 °F 30.18 in Calm     76% 0.00 in
18:49 39.9 °F 33.3 °F 30.19 in Calm     77% 0.00 in
18:59 39.7 °F 33.1 °F 30.18 in Calm     77% 0.00 in
19:04 39.7 °F 33.1 °F 30.19 in Calm     77% 0.00 in
19:09 39.7 °F 33.4 °F 30.19 in Calm     78% 0.00 in
19:14 39.7 °F 33.4 °F 30.19 in Calm     78% 0.00 in
19:19 39.6 °F 33.3 °F 30.19 in Calm     78% 0.00 in
19:34 39.5 °F 32.9 °F 30.18 in Calm     77% 0.00 in
19:39 39.5 °F 32.9 °F 30.18 in Calm     77% 0.00 in
19:49 40.1 °F 33.1 °F 30.19 in Calm   1.0 mph 76% 0.00 in
19:54 40.2 °F 32.9 °F 30.19 in Calm     75% 0.00 in
19:59 40.1 °F 32.5 °F 30.19 in Calm     74% 0.00 in
20:04 40.0 °F 32.4 °F 30.19 in Calm     74% 0.00 in
20:09 39.9 °F 32.3 °F 30.18 in Calm     74% 0.00 in
20:14 39.9 °F 32.3 °F 30.18 in Calm   1.0 mph 74% 0.00 in
20:24 39.7 °F 32.1 °F 30.18 in Calm   2.0 mph 74% 0.00 in
20:29 39.7 °F 32.1 °F 30.18 in Calm   2.0 mph 74% 0.00 in
20:34 39.6 °F 32.0 °F 30.17 in Calm   2.0 mph 74% 0.00 in
20:39 39.5 °F 31.9 °F 30.17 in Calm     74% 0.00 in
20:44 39.3 °F 31.7 °F 30.17 in Calm     74% 0.00 in
20:49 39.1 °F 31.8 °F 30.17 in Calm     75% 0.00 in
20:54 39.0 °F 31.7 °F 30.17 in Calm     75% 0.00 in
20:59 38.7 °F 31.5 °F 30.17 in SSE 1.0 mph 2.0 mph 75% 0.00 in
21:14 38.0 °F 31.1 °F 30.17 in Calm   1.0 mph 76% 0.00 in
21:19 38.0 °F 31.1 °F 30.17 in Calm     76% 0.00 in
21:29 37.9 °F 31.3 °F 30.17 in Calm     77% 0.00 in
21:39 38.2 °F 31.6 °F 30.17 in Calm     77% 0.00 in
21:44 38.2 °F 31.6 °F 30.17 in Calm     77% 0.00 in
21:49 38.3 °F 31.7 °F 30.17 in Calm     77% 0.00 in
21:54 38.2 °F 31.6 °F 30.16 in Calm     77% 0.00 in
22:04 38.6 °F 32.0 °F 30.17 in SSE 1.0 mph 4.0 mph 77% 0.00 in
22:09 38.6 °F 31.7 °F 30.16 in Calm     76% 0.00 in
22:14 38.6 °F 31.7 °F 30.16 in Calm     76% 0.00 in
22:24 38.6 °F 31.7 °F 30.16 in Calm     76% 0.00 in
22:29 38.6 °F 32.0 °F 30.16 in Calm     77% 0.00 in
22:34 38.6 °F 31.7 °F 30.16 in Calm     76% 0.00 in
22:39 38.5 °F 31.9 °F 30.16 in Calm     77% 0.00 in
22:44 38.5 °F 31.9 °F 30.15 in Calm     77% 0.00 in
22:49 38.6 °F 32.0 °F 30.16 in Calm     77% 0.00 in
22:54 38.7 °F 31.8 °F 30.15 in Calm     76% 0.00 in
23:19 38.9 °F 32.0 °F 30.15 in Calm     76% 0.00 in
23:24 38.8 °F 31.9 °F 30.16 in Calm     76% 0.00 in
23:34 38.6 °F 31.7 °F 30.16 in Calm     76% 0.00 in
23:39 38.5 °F 31.9 °F 30.16 in Calm     77% 0.00 in
23:44 38.2 °F 31.6 °F 30.16 in Calm     77% 0.00 in
23:49 38.0 °F 31.4 °F 30.16 in Calm     77% 0.00 in
23:54 37.8 °F 31.6 °F 30.16 in Calm     78% 0.00 in
Buffalo, New York, USA
Compliments of Weather Underground - 2 mb